createdAt,value
2023-02-12T00:01:53.744Z,56.10
2023-02-12T00:04:56.294Z,55.99
2023-02-12T00:07:58.348Z,56.14
2023-02-12T00:11:06.938Z,55.96
2023-02-12T00:14:08.852Z,56.03
2023-02-12T00:17:12.300Z,56.09
2023-02-12T00:20:14.246Z,56.10
2023-02-12T00:23:17.555Z,56.24
2023-02-12T00:26:21.837Z,55.93
2023-02-12T00:29:25.822Z,56.11
2023-02-12T00:32:28.182Z,55.97
2023-02-12T00:35:30.937Z,55.93
2023-02-12T00:38:33.166Z,55.87
2023-02-12T00:41:35.756Z,55.94
2023-02-12T00:44:37.944Z,55.97
2023-02-12T00:47:40.286Z,55.83
2023-02-12T00:50:48.528Z,55.90
2023-02-12T00:53:52.146Z,55.99
2023-02-12T00:56:55.878Z,55.92
2023-02-12T00:59:58.235Z,55.94
2023-02-12T01:03:00.690Z,56.01
2023-02-12T01:06:03.334Z,56.07
2023-02-12T01:09:05.373Z,56.19
2023-02-12T01:12:08.079Z,56.29
2023-02-12T01:15:11.052Z,56.47
2023-02-12T01:18:16.321Z,56.40
2023-02-12T01:21:22.068Z,56.27
2023-02-12T01:24:24.615Z,56.53
2023-02-12T01:27:26.798Z,56.65
2023-02-12T01:30:31.554Z,56.66
2023-02-12T01:33:33.872Z,56.97
2023-02-12T01:36:36.540Z,56.99
2023-02-12T01:39:38.856Z,57.83
2023-02-12T01:42:41.426Z,56.56
2023-02-12T01:45:47.980Z,55.80
2023-02-12T01:48:50.530Z,59.22
2023-02-12T01:52:00.603Z,62.38
2023-02-12T01:55:06.741Z,61.01
2023-02-12T01:58:10.228Z,59.51
2023-02-12T02:01:21.997Z,58.62
2023-02-12T02:04:29.176Z,58.23
2023-02-12T02:07:32.016Z,57.73
2023-02-12T02:10:34.099Z,57.58
2023-02-12T02:13:55.589Z,57.44
2023-02-12T02:17:10.991Z,57.23
2023-02-12T02:20:26.768Z,57.20
2023-02-12T02:23:40.043Z,57.10
2023-02-12T02:27:09.227Z,57.12
2023-02-12T02:30:34.646Z,57.21
2023-02-12T02:33:44.387Z,57.01
2023-02-12T02:37:02.181Z,57.18
2023-02-12T02:40:23.237Z,57.04
2023-02-12T02:43:44.865Z,56.97
2023-02-12T02:46:50.846Z,57.21
2023-02-12T02:49:57.941Z,57.05
2023-02-12T02:53:06.304Z,56.89
2023-02-12T02:56:14.588Z,57.08
2023-02-12T02:59:27.738Z,56.85
2023-02-12T03:02:33.788Z,56.99
2023-02-12T03:05:41.596Z,56.99
2023-02-12T03:08:53.075Z,56.94
2023-02-12T03:12:01.207Z,56.95
2023-02-12T03:15:15.250Z,57.06
2023-02-12T03:18:22.429Z,56.74
2023-02-12T03:21:31.336Z,56.92
2023-02-12T03:24:45.827Z,56.87
2023-02-12T03:27:57.178Z,57.05
2023-02-12T03:31:24.758Z,56.98
2023-02-12T03:34:48.399Z,56.94
2023-02-12T03:37:53.789Z,56.94
2023-02-12T03:41:06.857Z,56.88
2023-02-12T03:44:18.202Z,56.93
2023-02-12T03:47:32.559Z,57.01
2023-02-12T03:50:47.086Z,57.10
2023-02-12T03:53:49.659Z,57.20
2023-02-12T03:57:07.889Z,57.18
2023-02-12T04:00:18.614Z,56.99
2023-02-12T04:03:23.503Z,56.92
2023-02-12T04:06:27.857Z,57.02
2023-02-12T04:09:31.976Z,57.29
2023-02-12T04:12:41.431Z,57.03
2023-02-12T04:15:58.881Z,57.04
2023-02-12T04:19:01.935Z,56.88
2023-02-12T04:22:45.162Z,56.98
2023-02-12T04:25:56.279Z,57.09
2023-02-12T04:28:58.810Z,57.15
2023-02-12T04:32:51.590Z,56.99
2023-02-12T04:36:06.760Z,57.23
2023-02-12T04:39:15.382Z,57.29
2023-02-12T04:42:17.846Z,57.42
2023-02-12T04:45:32.032Z,57.34
2023-02-12T04:48:35.662Z,57.44
2023-02-12T04:51:37.863Z,57.59
2023-02-12T04:54:40.123Z,57.46
2023-02-12T04:57:42.199Z,57.73
2023-02-12T05:00:45.050Z,57.31
2023-02-12T05:03:47.246Z,57.58
2023-02-12T05:06:49.780Z,57.54
2023-02-12T05:09:52.205Z,57.38
2023-02-12T05:12:56.064Z,57.46
2023-02-12T05:15:58.479Z,57.56
2023-02-12T05:19:01.100Z,57.55
2023-02-12T05:22:03.496Z,57.72
2023-02-12T05:25:06.371Z,57.44
2023-02-12T05:28:08.605Z,57.59
2023-02-12T05:31:14.735Z,57.61
2023-02-12T05:34:16.741Z,57.57
2023-02-12T05:37:19.262Z,57.58
2023-02-12T05:40:21.451Z,57.37
2023-02-12T05:43:24.347Z,57.60
2023-02-12T05:46:26.708Z,57.62
2023-02-12T05:49:29.021Z,57.47
2023-02-12T05:52:31.531Z,57.47
2023-02-12T05:55:33.993Z,57.59
2023-02-12T05:58:36.222Z,57.56
2023-02-12T06:01:41.508Z,57.60
2023-02-12T06:04:43.622Z,57.68
2023-02-12T06:07:46.163Z,57.70
2023-02-12T06:10:50.521Z,57.66
2023-02-12T06:13:53.395Z,57.77
2023-02-12T06:16:55.345Z,57.57
2023-02-12T06:19:57.886Z,57.61
2023-02-12T06:23:00.014Z,57.59
2023-02-12T06:26:02.942Z,57.60
2023-02-12T06:29:05.172Z,57.60
2023-02-12T06:32:08.660Z,57.50
2023-02-12T06:35:10.610Z,57.51
2023-02-12T06:38:14.168Z,57.60
2023-02-12T06:41:17.163Z,57.51
2023-02-12T06:44:19.597Z,57.56
2023-02-12T06:47:21.910Z,57.36
2023-02-12T06:50:25.286Z,57.56
2023-02-12T06:53:27.238Z,57.47
2023-02-12T06:56:29.617Z,57.50
2023-02-12T06:59:32.307Z,57.55
2023-02-12T07:02:38.937Z,57.45
2023-02-12T07:05:41.822Z,57.66
2023-02-12T07:08:44.588Z,57.55
2023-02-12T07:11:46.637Z,57.62
2023-02-12T07:14:49.013Z,57.66
2023-02-12T07:17:52.496Z,57.41
2023-02-12T07:20:57.027Z,57.58
2023-02-12T07:23:59.141Z,57.57
2023-02-12T07:27:01.733Z,57.57
2023-02-12T07:30:08.277Z,57.53
2023-02-12T07:33:10.559Z,57.54
2023-02-12T07:36:14.763Z,57.73
2023-02-12T07:39:17.011Z,57.57
2023-02-12T07:42:19.036Z,57.60
2023-02-12T07:45:25.502Z,57.57
2023-02-12T07:48:27.486Z,57.55
2023-02-12T07:51:30.539Z,57.51
2023-02-12T07:54:32.479Z,57.53
2023-02-12T07:57:36.575Z,57.66
2023-02-12T08:00:38.737Z,57.49
2023-02-12T08:03:41.933Z,57.50
2023-02-12T08:06:45.995Z,57.64
2023-02-12T08:09:48.466Z,58.19
2023-02-12T08:12:51.415Z,58.43
2023-02-12T08:16:01.326Z,58.51
2023-02-12T08:19:16.541Z,58.63
2023-02-12T08:22:30.700Z,58.75
2023-02-12T08:25:32.661Z,58.42
2023-02-12T08:28:36.099Z,58.47
2023-02-12T08:31:41.988Z,58.45
2023-02-12T08:34:44.395Z,58.60
2023-02-12T08:37:48.522Z,58.54
2023-02-12T08:40:51.057Z,58.48
2023-02-12T08:43:55.528Z,58.41
2023-02-12T08:46:59.927Z,58.27
2023-02-12T08:50:02.070Z,58.13
2023-02-12T08:53:05.029Z,58.25
2023-02-12T08:56:10.068Z,58.23
2023-02-12T08:59:14.217Z,58.21
2023-02-12T09:02:16.173Z,58.19
2023-02-12T09:05:18.991Z,58.19
2023-02-12T09:08:21.192Z,58.20
2023-02-12T09:11:30.856Z,58.14
2023-02-12T09:14:33.036Z,58.06
2023-02-12T09:17:35.426Z,58.07
2023-02-12T09:20:42.554Z,58.23
2023-02-12T09:23:44.982Z,58.14
2023-02-12T09:26:46.931Z,58.09
2023-02-12T09:29:49.784Z,57.94
2023-02-12T09:32:52.209Z,58.10
2023-02-12T09:35:54.959Z,58.00
2023-02-12T09:38:59.550Z,57.96
2023-02-12T09:42:08.465Z,57.99
2023-02-12T09:45:33.164Z,58.01
2023-02-12T09:48:41.340Z,58.02
2023-02-12T09:51:51.336Z,57.51
2023-02-12T09:54:54.973Z,57.37
2023-02-12T09:57:57.324Z,56.88
2023-02-12T10:01:01.777Z,57.13
2023-02-12T10:04:05.517Z,56.83
2023-02-12T10:07:17.961Z,56.93
2023-02-12T10:10:20.153Z,56.80
2023-02-12T10:13:46.770Z,56.66
2023-02-12T10:17:07.531Z,56.43
2023-02-12T10:20:17.336Z,56.45
2023-02-12T10:23:25.718Z,56.45
2023-02-12T10:26:36.064Z,56.43
2023-02-12T10:29:42.622Z,56.44
2023-02-12T10:32:47.631Z,56.42
2023-02-12T10:35:55.065Z,56.11
2023-02-12T10:39:03.100Z,56.04
2023-02-12T10:42:26.202Z,55.92
2023-02-12T10:45:35.381Z,55.77
2023-02-12T10:48:41.359Z,55.74
2023-02-12T10:52:03.821Z,55.73
2023-02-12T10:55:24.227Z,55.67
2023-02-12T10:58:26.725Z,55.54
2023-02-12T11:01:39.378Z,55.53
2023-02-12T11:04:41.971Z,55.46
2023-02-12T11:07:49.898Z,55.29
2023-02-12T11:10:52.874Z,55.33
2023-02-12T11:14:02.739Z,55.26
2023-02-12T11:17:05.228Z,55.13
2023-02-12T11:20:19.482Z,55.12
2023-02-12T11:23:32.303Z,55.01
2023-02-12T11:26:34.756Z,55.06
2023-02-12T11:29:37.990Z,54.99
2023-02-12T11:32:40.920Z,54.64
2023-02-12T11:35:57.819Z,54.74
2023-02-12T11:39:00.733Z,54.38
2023-02-12T11:42:14.945Z,54.20
2023-02-12T11:45:19.964Z,54.13
2023-02-12T11:48:25.684Z,53.93
2023-02-12T11:51:31.313Z,53.89
2023-02-12T11:54:42.636Z,53.78
2023-02-12T11:58:02.907Z,53.75
2023-02-12T12:01:15.058Z,53.70
2023-02-12T12:04:21.591Z,53.72
2023-02-12T12:07:34.304Z,53.73
2023-02-12T12:10:51.255Z,53.73
2023-02-12T12:14:18.362Z,53.63
2023-02-12T12:17:43.177Z,53.64
2023-02-12T12:21:01.208Z,53.48
2023-02-12T12:24:11.328Z,53.45
2023-02-12T12:27:43.005Z,53.45
2023-02-12T12:31:10.137Z,53.45
2023-02-12T12:34:19.447Z,53.40
2023-02-12T12:37:42.541Z,53.35
2023-02-12T12:41:07.257Z,53.35
2023-02-12T12:44:43.392Z,53.35
2023-02-12T12:47:55.243Z,53.31
2023-02-12T12:51:03.360Z,53.30
2023-02-12T12:54:25.173Z,53.15
2023-02-12T12:57:50.466Z,53.15
2023-02-12T13:01:04.287Z,53.28
2023-02-12T13:04:25.000Z,53.28
2023-02-12T13:08:01.220Z,53.20
2023-02-12T13:11:28.177Z,53.17
2023-02-12T13:14:50.024Z,53.15
2023-02-12T13:18:04.322Z,53.09
2023-02-12T13:21:42.620Z,53.07
2023-02-12T13:25:00.883Z,53.15
2023-02-12T13:28:06.324Z,52.73
2023-02-12T13:31:32.139Z,52.99
2023-02-12T13:34:37.228Z,51.58
2023-02-12T13:37:46.846Z,51.49
2023-02-12T13:40:52.307Z,54.15
2023-02-12T13:44:13.220Z,53.05
2023-02-12T13:47:29.931Z,53.73
2023-02-12T13:51:01.356Z,53.66
2023-02-12T13:54:19.144Z,54.14
2023-02-12T13:57:21.599Z,52.32
2023-02-12T14:00:52.195Z,53.07
2023-02-12T14:03:54.465Z,55.72
2023-02-12T14:07:07.334Z,56.92
2023-02-12T14:10:22.482Z,56.04
2023-02-12T14:13:28.582Z,58.35
2023-02-12T14:16:33.408Z,58.30
2023-02-12T14:19:52.817Z,61.88
2023-02-12T14:23:22.949Z,59.24
2023-02-12T14:26:25.761Z,58.70
2023-02-12T14:29:29.023Z,60.02
2023-02-12T14:32:50.422Z,59.60
2023-02-12T14:36:16.390Z,58.71
2023-02-12T14:39:25.129Z,58.88
2023-02-12T14:42:56.998Z,60.27
2023-02-12T14:46:22.659Z,61.14
2023-02-12T14:49:28.897Z,59.38
2023-02-12T14:52:34.029Z,59.09
2023-02-12T14:55:37.363Z,60.54
2023-02-12T14:58:40.778Z,63.26
2023-02-12T15:01:44.543Z,60.14
2023-02-12T15:04:49.011Z,58.14
2023-02-12T15:07:59.410Z,57.46
2023-02-12T15:11:21.628Z,56.36
2023-02-12T15:14:32.491Z,55.59
2023-02-12T15:17:40.192Z,55.13
2023-02-12T15:20:51.567Z,54.67
2023-02-12T15:24:12.511Z,54.48
2023-02-12T15:27:16.076Z,54.26
2023-02-12T15:30:26.278Z,54.21
2023-02-12T15:33:32.423Z,54.10
2023-02-12T15:36:36.611Z,54.01
2023-02-12T15:39:44.427Z,53.84
2023-02-12T15:42:54.449Z,53.82
2023-02-12T15:45:56.810Z,53.87
2023-02-12T15:49:00.481Z,53.91
2023-02-12T15:52:25.138Z,54.10
2023-02-12T15:55:33.616Z,54.22
2023-02-12T15:58:55.809Z,54.22
2023-02-12T16:02:02.546Z,54.13
2023-02-12T16:05:06.189Z,54.00
2023-02-12T16:08:16.573Z,53.96
2023-02-12T16:11:21.579Z,53.93
2023-02-12T16:14:43.657Z,53.76
2023-02-12T16:17:48.750Z,53.65
2023-02-12T16:21:17.686Z,53.51
2023-02-12T16:24:32.208Z,53.53
2023-02-12T16:27:35.635Z,53.52
2023-02-12T16:30:42.505Z,53.48
2023-02-12T16:33:49.875Z,53.41
2023-02-12T16:36:52.329Z,53.49
2023-02-12T16:39:58.520Z,53.53
2023-02-12T16:43:23.074Z,53.71
2023-02-12T16:46:26.386Z,53.83
2023-02-12T16:49:28.943Z,53.69
2023-02-12T16:52:40.044Z,53.63
2023-02-12T16:55:42.673Z,53.62
2023-02-12T16:58:47.044Z,53.64
2023-02-12T17:02:04.288Z,54.05
2023-02-12T17:05:07.587Z,54.58
2023-02-12T17:08:15.357Z,54.47
2023-02-12T17:11:18.581Z,54.31
2023-02-12T17:14:21.384Z,53.94
2023-02-12T17:17:23.776Z,53.76
2023-02-12T17:20:25.838Z,53.77
2023-02-12T17:23:29.385Z,53.84
2023-02-12T17:26:31.398Z,53.85
2023-02-12T17:29:33.964Z,53.82
2023-02-12T17:32:35.952Z,53.84
2023-02-12T17:35:39.415Z,53.91
2023-02-12T17:38:41.601Z,53.94
2023-02-12T17:41:44.893Z,54.06
2023-02-12T17:44:47.028Z,54.17
2023-02-12T17:47:50.027Z,54.09
2023-02-12T17:50:58.211Z,54.03
2023-02-12T17:54:01.636Z,54.08
2023-02-12T17:57:04.402Z,54.16
2023-02-12T18:00:14.661Z,54.10
2023-02-12T18:03:16.850Z,54.27
2023-02-12T18:06:28.894Z,54.15
2023-02-12T18:09:31.541Z,54.28
2023-02-12T18:12:35.072Z,54.31
2023-02-12T18:15:37.673Z,54.23
2023-02-12T18:18:41.113Z,54.38
2023-02-12T18:21:43.105Z,54.37
2023-02-12T18:24:46.136Z,54.47
2023-02-12T18:27:48.267Z,54.45
2023-02-12T18:31:00.235Z,54.42
2023-02-12T18:34:04.861Z,54.41
2023-02-12T18:37:08.051Z,54.40
2023-02-12T18:40:10.503Z,54.63
2023-02-12T18:43:13.656Z,54.65
2023-02-12T18:46:28.580Z,54.70
2023-02-12T18:49:31.178Z,54.70
2023-02-12T18:52:33.251Z,54.87
2023-02-12T18:55:39.420Z,54.83
2023-02-12T18:58:42.042Z,54.83
2023-02-12T19:01:44.880Z,54.97
2023-02-12T19:04:46.983Z,55.03
2023-02-12T19:07:49.327Z,55.03
2023-02-12T19:10:51.309Z,55.03
2023-02-12T19:13:54.857Z,55.14
2023-02-12T19:16:57.307Z,55.15
2023-02-12T19:19:59.682Z,55.18
2023-02-12T19:23:01.735Z,55.21
2023-02-12T19:26:06.829Z,55.24
2023-02-12T19:29:09.091Z,55.45
2023-02-12T19:32:11.864Z,55.57
2023-02-12T19:35:14.089Z,55.61
2023-02-12T19:38:16.781Z,55.40
2023-02-12T19:41:21.830Z,55.37
2023-02-12T19:44:25.974Z,56.10
2023-02-12T19:47:28.030Z,55.81
2023-02-12T19:50:30.576Z,55.75
2023-02-12T19:53:32.655Z,55.62
2023-02-12T19:56:35.646Z,55.78
2023-02-12T19:59:37.857Z,55.83
2023-02-12T20:02:41.687Z,55.73
2023-02-12T20:05:51.812Z,55.91
2023-02-12T20:08:54.640Z,55.77
2023-02-12T20:11:57.571Z,55.72
2023-02-12T20:15:02.742Z,55.74
2023-02-12T20:18:06.015Z,56.21
2023-02-12T20:21:14.105Z,56.72
2023-02-12T20:24:16.408Z,57.20
2023-02-12T20:27:19.010Z,57.24
2023-02-12T20:30:21.196Z,57.08
2023-02-12T20:33:23.646Z,57.01
2023-02-12T20:36:26.786Z,56.47
2023-02-12T20:39:29.546Z,56.53
2023-02-12T20:42:32.686Z,56.43
2023-02-12T20:45:35.348Z,56.23
2023-02-12T20:48:37.797Z,55.99
2023-02-12T20:51:41.317Z,55.81
2023-02-12T20:54:43.425Z,55.67
2023-02-12T20:57:46.714Z,55.53
2023-02-12T21:00:48.914Z,55.49
2023-02-12T21:03:53.946Z,55.48
2023-02-12T21:06:56.121Z,55.36
2023-02-12T21:09:58.692Z,55.26
2023-02-12T21:13:00.844Z,55.25
2023-02-12T21:16:11.913Z,55.19
2023-02-12T21:19:14.371Z,55.43
2023-02-12T21:22:16.868Z,55.50
2023-02-12T21:25:18.846Z,55.47
2023-02-12T21:28:21.452Z,55.44
2023-02-12T21:31:27.051Z,55.37
2023-02-12T21:34:30.265Z,55.36
2023-02-12T21:37:32.252Z,55.31
2023-02-12T21:40:34.678Z,55.19
2023-02-12T21:43:37.607Z,55.23
2023-02-12T21:46:40.262Z,55.13
2023-02-12T21:49:44.205Z,55.14
2023-02-12T21:52:46.808Z,55.12
2023-02-12T21:55:49.590Z,55.09
2023-02-12T21:58:53.242Z,55.08
2023-02-12T22:01:56.391Z,55.09
2023-02-12T22:04:59.031Z,55.11
2023-02-12T22:08:01.789Z,54.91
2023-02-12T22:11:05.698Z,54.88
2023-02-12T22:14:09.238Z,54.77
2023-02-12T22:17:11.717Z,55.33
2023-02-12T22:20:14.225Z,55.31
2023-02-12T22:23:16.790Z,55.61
2023-02-12T22:26:26.304Z,54.24
2023-02-12T22:29:28.732Z,56.21
2023-02-12T22:32:30.981Z,56.07
2023-02-12T22:35:33.637Z,55.91
2023-02-12T22:38:37.382Z,55.48
2023-02-12T22:41:42.178Z,54.85
2023-02-12T22:44:44.433Z,51.40
2023-02-12T22:47:46.862Z,50.40
2023-02-12T22:50:49.044Z,56.01
2023-02-12T22:53:51.836Z,57.62
2023-02-12T22:56:54.239Z,59.70
2023-02-12T22:59:56.822Z,57.67
2023-02-12T23:02:59.269Z,56.20
2023-02-12T23:06:02.892Z,55.63
2023-02-12T23:09:05.260Z,55.26
2023-02-12T23:12:09.645Z,54.91
2023-02-12T23:15:11.687Z,54.87
2023-02-12T23:18:14.152Z,54.72
2023-02-12T23:21:17.297Z,54.57
2023-02-12T23:24:19.934Z,54.43
2023-02-12T23:27:22.336Z,54.38
2023-02-12T23:30:25.072Z,54.41
2023-02-12T23:33:27.106Z,54.42
2023-02-12T23:36:29.524Z,54.33
2023-02-12T23:39:31.595Z,54.32
2023-02-12T23:42:33.917Z,54.37
2023-02-12T23:45:35.945Z,54.28
2023-02-12T23:48:38.316Z,54.27
2023-02-12T23:51:40.440Z,54.05
2023-02-12T23:54:43.096Z,54.07
2023-02-12T23:57:46.448Z,54.09
